createdAt,value
2022-10-17T00:00:17.171Z,13.77
2022-10-17T00:05:25.493Z,13.71
2022-10-17T00:10:33.285Z,13.66
2022-10-17T00:15:45.086Z,13.59
2022-10-17T00:20:52.840Z,13.55
2022-10-17T00:26:07.198Z,13.51
2022-10-17T00:31:14.676Z,13.43
2022-10-17T00:36:24.138Z,13.36
2022-10-17T00:41:35.521Z,13.26
2022-10-17T00:46:45.776Z,13.14
2022-10-17T00:51:56.055Z,13.05
2022-10-17T00:57:04.040Z,12.93
2022-10-17T01:02:14.994Z,12.82
2022-10-17T01:07:22.406Z,12.71
2022-10-17T01:12:38.820Z,12.59
2022-10-17T01:18:00.917Z,12.48
2022-10-17T01:23:29.800Z,12.34
2022-10-17T01:29:07.680Z,12.20
2022-10-17T01:34:21.022Z,12.04
2022-10-17T01:39:40.067Z,11.87
2022-10-17T01:44:57.522Z,11.72
2022-10-17T01:50:09.604Z,11.56
2022-10-17T01:55:22.161Z,11.40
2022-10-17T02:00:32.692Z,11.27
2022-10-17T02:05:42.846Z,11.13
2022-10-17T02:10:56.643Z,11.00
2022-10-17T02:16:22.912Z,10.93
2022-10-17T02:21:37.051Z,10.83
2022-10-17T02:26:52.657Z,10.74
2022-10-17T02:32:06.375Z,10.64
2022-10-17T02:37:17.080Z,10.55
2022-10-17T02:42:26.640Z,10.47
2022-10-17T02:47:38.797Z,10.39
2022-10-17T02:52:53.569Z,10.31
2022-10-17T02:58:06.808Z,10.24
2022-10-17T03:03:26.572Z,10.20
2022-10-17T03:08:34.347Z,10.15
2022-10-17T03:13:42.038Z,10.09
2022-10-17T03:18:50.394Z,10.04
2022-10-17T03:23:58.285Z,9.97
2022-10-17T03:29:05.996Z,9.94
2022-10-17T03:34:14.214Z,9.88
2022-10-17T03:39:21.600Z,9.83
2022-10-17T03:44:29.012Z,9.76
2022-10-17T03:49:36.756Z,9.70
2022-10-17T03:54:45.210Z,9.64
2022-10-17T03:59:53.787Z,9.58
2022-10-17T04:05:02.051Z,9.51
2022-10-17T04:10:11.686Z,9.45
2022-10-17T04:15:20.137Z,9.40
2022-10-17T04:20:28.170Z,9.32
2022-10-17T04:25:38.109Z,9.26
2022-10-17T04:30:45.782Z,9.21
2022-10-17T04:36:01.341Z,9.15
2022-10-17T04:41:13.314Z,9.09
2022-10-17T04:46:20.651Z,9.02
2022-10-17T04:51:29.040Z,8.96
2022-10-17T04:56:52.127Z,8.90
2022-10-17T05:02:01.525Z,8.86
2022-10-17T05:07:11.245Z,8.80
2022-10-17T05:12:35.496Z,8.75
2022-10-17T05:17:43.746Z,8.70
2022-10-17T05:22:52.199Z,8.64
2022-10-17T05:28:02.461Z,8.60
2022-10-17T05:33:10.751Z,8.56
2022-10-17T05:38:19.375Z,8.52
2022-10-17T05:43:28.300Z,8.49
2022-10-17T05:48:36.572Z,8.45
2022-10-17T05:53:45.340Z,8.42
2022-10-17T05:59:01.026Z,8.40
2022-10-17T06:04:29.895Z,8.40
2022-10-17T06:09:38.208Z,8.43
2022-10-17T06:14:46.867Z,8.39
2022-10-17T06:19:55.690Z,8.57
2022-10-17T06:25:04.270Z,8.67
2022-10-17T06:30:13.867Z,8.77
2022-10-17T06:35:22.230Z,8.86
2022-10-17T06:40:30.641Z,9.01
2022-10-17T06:45:40.167Z,9.19
2022-10-17T06:51:10.472Z,9.38
2022-10-17T06:56:28.399Z,9.58
2022-10-17T07:02:08.968Z,9.78
2022-10-17T07:07:17.990Z,9.95
2022-10-17T07:12:26.586Z,10.13
2022-10-17T07:17:34.982Z,10.34
2022-10-17T07:22:43.031Z,10.54
2022-10-17T07:27:52.081Z,10.75
2022-10-17T07:33:01.941Z,11.01
2022-10-17T07:38:10.058Z,11.31
2022-10-17T07:43:18.464Z,11.59
2022-10-17T07:48:26.906Z,11.83
2022-10-17T07:53:36.438Z,12.06
2022-10-17T07:58:44.421Z,12.28
2022-10-17T08:03:52.759Z,12.49
2022-10-17T08:09:02.116Z,12.62
2022-10-17T08:14:10.348Z,12.87
2022-10-17T08:19:17.387Z,13.04
2022-10-17T08:24:25.638Z,13.21
2022-10-17T08:29:34.541Z,13.42
2022-10-17T08:34:42.988Z,13.65
2022-10-17T08:39:50.272Z,13.85
2022-10-17T08:45:08.489Z,14.12
2022-10-17T08:50:23.766Z,14.38
2022-10-17T08:55:41.448Z,14.63
2022-10-17T09:00:59.917Z,14.90
2022-10-17T09:06:20.934Z,15.18
2022-10-17T09:11:47.099Z,15.44
2022-10-17T09:17:05.740Z,15.67
2022-10-17T09:22:18.838Z,15.87
2022-10-17T09:27:34.059Z,16.07
2022-10-17T09:32:43.424Z,16.28
2022-10-17T09:37:52.586Z,16.48
2022-10-17T09:43:01.595Z,16.65
2022-10-17T09:48:19.916Z,16.80
2022-10-17T09:53:32.633Z,16.97
2022-10-17T09:58:48.255Z,17.12
2022-10-17T10:04:13.588Z,17.25
2022-10-17T10:09:27.323Z,17.40
2022-10-17T10:14:37.350Z,17.55
2022-10-17T10:19:53.986Z,17.70
2022-10-17T10:25:17.947Z,17.84
2022-10-17T10:30:36.157Z,17.94
2022-10-17T10:35:58.309Z,18.02
2022-10-17T10:41:09.680Z,18.13
2022-10-17T10:46:23.866Z,18.26
2022-10-17T10:51:38.043Z,18.37
2022-10-17T10:56:51.117Z,18.46
2022-10-17T11:02:05.482Z,18.56
2022-10-17T11:07:15.686Z,18.65
2022-10-17T11:12:26.855Z,18.70
2022-10-17T11:17:42.729Z,18.76
2022-10-17T11:22:54.249Z,18.83
2022-10-17T11:28:04.852Z,18.90
2022-10-17T11:33:18.471Z,18.95
2022-10-17T11:38:38.087Z,18.99
2022-10-17T11:43:53.539Z,19.03
2022-10-17T11:49:19.851Z,19.08
2022-10-17T11:54:36.301Z,19.16
2022-10-17T12:00:04.884Z,19.25
2022-10-17T12:05:24.124Z,19.34
2022-10-17T12:10:41.836Z,19.40
2022-10-17T12:15:49.754Z,19.48
2022-10-17T12:21:02.337Z,19.55
2022-10-17T12:26:11.880Z,19.61
2022-10-17T12:31:33.644Z,19.66
2022-10-17T12:36:43.818Z,19.71
2022-10-17T12:42:00.397Z,19.75
2022-10-17T12:47:40.791Z,19.81
2022-10-17T12:53:08.048Z,19.88
2022-10-17T12:58:18.201Z,19.95
2022-10-17T13:03:29.610Z,20.02
2022-10-17T13:08:40.897Z,20.07
2022-10-17T13:13:50.313Z,20.13
2022-10-17T13:18:58.978Z,20.16
2022-10-17T13:24:24.567Z,20.14
2022-10-17T13:29:33.344Z,20.10
2022-10-17T13:34:41.815Z,20.07
2022-10-17T13:40:00.428Z,20.04
2022-10-17T13:45:22.241Z,20.01
2022-10-17T13:50:45.787Z,19.99
2022-10-17T13:56:22.939Z,19.97
2022-10-17T14:01:30.311Z,19.96
2022-10-17T14:06:44.981Z,19.95
2022-10-17T14:12:05.228Z,19.93
2022-10-17T14:17:23.706Z,19.90
2022-10-17T14:22:36.657Z,19.88
2022-10-17T14:28:03.002Z,19.86
2022-10-17T14:33:15.750Z,19.84
2022-10-17T14:38:24.604Z,19.82
2022-10-17T14:43:34.442Z,19.79
2022-10-17T14:48:43.702Z,19.76
2022-10-17T14:54:05.706Z,19.71
2022-10-17T14:59:30.171Z,19.67
2022-10-17T15:04:46.418Z,19.62
2022-10-17T15:09:55.359Z,19.58
2022-10-17T15:15:02.936Z,19.53
2022-10-17T15:20:17.767Z,19.47
2022-10-17T15:25:25.883Z,19.40
2022-10-17T15:30:38.269Z,19.32
2022-10-17T15:35:46.235Z,19.23
2022-10-17T15:40:54.313Z,19.15
2022-10-17T15:46:04.307Z,19.05
2022-10-17T15:51:12.607Z,18.89
2022-10-17T15:56:24.980Z,18.85
2022-10-17T16:01:35.321Z,18.75
2022-10-17T16:06:44.665Z,18.66
2022-10-17T16:11:52.719Z,18.57
2022-10-17T16:17:00.721Z,18.48
2022-10-17T16:22:13.316Z,18.40
2022-10-17T16:27:22.541Z,18.32
2022-10-17T16:32:30.687Z,18.25
2022-10-17T16:37:38.897Z,18.19
2022-10-17T16:42:47.470Z,18.12
2022-10-17T16:47:56.222Z,18.06
2022-10-17T16:53:04.680Z,18.01
2022-10-17T16:58:12.804Z,17.95
2022-10-17T17:03:20.890Z,17.90
2022-10-17T17:08:29.751Z,17.85
2022-10-17T17:13:37.941Z,17.81
2022-10-17T17:18:47.173Z,17.78
2022-10-17T17:23:54.392Z,17.74
2022-10-17T17:29:03.262Z,17.72
2022-10-17T17:34:14.286Z,17.69
2022-10-17T17:39:25.403Z,17.68
2022-10-17T17:44:33.606Z,17.66
2022-10-17T17:49:41.414Z,17.63
2022-10-17T17:54:50.874Z,17.60
2022-10-17T17:59:59.213Z,17.58
2022-10-17T18:05:08.812Z,17.56
2022-10-17T18:10:17.280Z,17.53
2022-10-17T18:15:25.369Z,17.50
2022-10-17T18:20:34.343Z,17.47
2022-10-17T18:25:42.578Z,17.45
2022-10-17T18:30:50.825Z,17.42
2022-10-17T18:35:59.855Z,17.40
2022-10-17T18:41:12.238Z,17.38
2022-10-17T18:46:21.885Z,17.36
2022-10-17T18:51:30.173Z,17.33
2022-10-17T18:56:38.305Z,17.29
2022-10-17T19:01:46.946Z,17.23
2022-10-17T19:06:54.950Z,17.22
2022-10-17T19:12:03.286Z,17.18
2022-10-17T19:17:11.769Z,17.16
2022-10-17T19:22:19.885Z,17.13
2022-10-17T19:27:28.495Z,17.10
2022-10-17T19:32:37.080Z,17.07
2022-10-17T19:37:44.645Z,17.04
2022-10-17T19:42:52.778Z,17.00
2022-10-17T19:48:00.583Z,16.99
2022-10-17T19:53:08.463Z,16.96
2022-10-17T19:58:16.859Z,16.93
2022-10-17T20:03:25.592Z,16.92
2022-10-17T20:08:32.628Z,16.90
2022-10-17T20:13:41.139Z,16.90
2022-10-17T20:18:49.180Z,16.90
2022-10-17T20:23:57.680Z,16.89
2022-10-17T20:29:09.015Z,16.90
2022-10-17T20:34:18.957Z,16.90
2022-10-17T20:39:27.002Z,16.90
2022-10-17T20:44:35.278Z,16.91
2022-10-17T20:49:43.302Z,16.90
2022-10-17T20:54:52.169Z,16.90
2022-10-17T20:59:59.456Z,16.90
2022-10-17T21:05:08.216Z,16.89
2022-10-17T21:10:35.423Z,16.86
2022-10-17T21:15:44.744Z,16.83
2022-10-17T21:20:53.085Z,16.81
2022-10-17T21:26:07.415Z,16.78
2022-10-17T21:31:18.111Z,16.73
2022-10-17T21:36:27.065Z,16.67
2022-10-17T21:41:35.572Z,16.62
2022-10-17T21:46:43.924Z,16.59
2022-10-17T21:51:52.797Z,16.54
2022-10-17T21:57:00.717Z,16.49
2022-10-17T22:02:08.926Z,16.47
2022-10-17T22:07:17.194Z,16.43
2022-10-17T22:12:25.106Z,16.36
2022-10-17T22:17:32.966Z,16.32
2022-10-17T22:22:41.072Z,16.27
2022-10-17T22:27:49.041Z,16.25
2022-10-17T22:32:56.914Z,16.20
2022-10-17T22:38:04.802Z,16.18
2022-10-17T22:43:12.772Z,16.14
2022-10-17T22:48:20.631Z,16.10
2022-10-17T22:53:30.150Z,16.06
2022-10-17T22:58:38.730Z,16.00
2022-10-17T23:03:47.483Z,15.97
2022-10-17T23:08:55.906Z,15.92
2022-10-17T23:14:04.590Z,15.88
2022-10-17T23:19:12.167Z,15.83
2022-10-17T23:24:20.180Z,15.78
2022-10-17T23:29:33.081Z,15.75
2022-10-17T23:34:40.932Z,15.71
2022-10-17T23:39:48.748Z,15.68
2022-10-17T23:44:56.665Z,15.65
2022-10-17T23:50:04.699Z,15.61
2022-10-17T23:55:14.070Z,15.58
